sensor_id;sensor_type;location;lat;lon;timestamp;pressure;altitude;pressure_sealevel;temperature;humidity
21781;BME280;52576;53.614;9.894;2024-03-02T00:02:13;100185.38;;;8.28;84.94
21781;BME280;52576;53.614;9.894;2024-03-02T00:04:17;100193.09;;;8.29;85.14
21781;BME280;52576;53.614;9.894;2024-03-02T00:06:20;100191.44;;;8.28;85.10
21781;BME280;52576;53.614;9.894;2024-03-02T00:08:24;100187.88;;;8.29;85.24
21781;BME280;52576;53.614;9.894;2024-03-02T00:10:36;100192.28;;;8.29;85.27
21781;BME280;52576;53.614;9.894;2024-03-02T00:12:40;100190.69;;;8.26;85.36
21781;BME280;52576;53.614;9.894;2024-03-02T00:14:44;100182.88;;;8.26;85.56
21781;BME280;52576;53.614;9.894;2024-03-02T00:16:47;100186.41;;;8.25;85.59
21781;BME280;52576;53.614;9.894;2024-03-02T00:18:50;100186.41;;;8.25;85.70
21781;BME280;52576;53.614;9.894;2024-03-02T00:20:55;100184.63;;;8.26;85.76
21781;BME280;52576;53.614;9.894;2024-03-02T00:23:02;100183.69;;;8.27;85.68
21781;BME280;52576;53.614;9.894;2024-03-02T00:25:06;100182.88;;;8.26;85.73
21781;BME280;52576;53.614;9.894;2024-03-02T00:27:15;100187.16;;;8.27;85.71
21781;BME280;52576;53.614;9.894;2024-03-02T00:29:41;100179.31;;;8.27;85.74
21781;BME280;52576;53.614;9.894;2024-03-02T00:31:45;100174.09;;;8.27;85.81
21781;BME280;52576;53.614;9.894;2024-03-02T00:33:48;100179.31;;;8.27;85.98
21781;BME280;52576;53.614;9.894;2024-03-02T00:35:52;100175.88;;;8.27;85.77
21781;BME280;52576;53.614;9.894;2024-03-02T00:37:55;100175.03;;;8.26;85.90
21781;BME280;52576;53.614;9.894;2024-03-02T00:39:58;100168.88;;;8.27;85.90
21781;BME280;52576;53.614;9.894;2024-03-02T00:42:01;100172.41;;;8.26;85.92
21781;BME280;52576;53.614;9.894;2024-03-02T00:44:06;100173.34;;;8.25;85.90
21781;BME280;52576;53.614;9.894;2024-03-02T00:46:13;100167.19;;;8.26;85.89
21781;BME280;52576;53.614;9.894;2024-03-02T00:48:16;100167.19;;;8.26;85.83
21781;BME280;52576;53.614;9.894;2024-03-02T00:50:20;100172.41;;;8.26;85.91
21781;BME280;52576;53.614;9.894;2024-03-02T00:52:31;100167.19;;;8.26;86.03
21781;BME280;52576;53.614;9.894;2024-03-02T00:54:34;100165.53;;;8.25;86.07
21781;BME280;52576;53.614;9.894;2024-03-02T00:56:37;100172.41;;;8.26;86.17
21781;BME280;52576;53.614;9.894;2024-03-02T00:58:41;100170.75;;;8.25;86.13
21781;BME280;52576;53.614;9.894;2024-03-02T01:00:45;100167.19;;;8.26;86.27
21781;BME280;52576;53.614;9.894;2024-03-02T01:02:48;100166.34;;;8.26;86.30
21781;BME280;52576;53.614;9.894;2024-03-02T01:04:52;100171.59;;;8.26;86.52
21781;BME280;52576;53.614;9.894;2024-03-02T01:06:55;100169.81;;;8.26;86.70
21781;BME280;52576;53.614;9.894;2024-03-02T01:09:00;100177.63;;;8.26;86.62
21781;BME280;52576;53.614;9.894;2024-03-02T01:11:04;100175.03;;;8.26;86.66
21781;BME280;52576;53.614;9.894;2024-03-02T01:13:06;100182.03;;;8.26;86.66
21781;BME280;52576;53.614;9.894;2024-03-02T01:15:09;100180.34;;;8.25;86.68
21781;BME280;52576;53.614;9.894;2024-03-02T01:17:14;100175.13;;;8.25;87.07
21781;BME280;52576;53.614;9.894;2024-03-02T01:19:16;100181.19;;;8.25;87.24
21781;BME280;52576;53.614;9.894;2024-03-02T01:21:20;100178.56;;;8.25;87.23
21781;BME280;52576;53.614;9.894;2024-03-02T01:23:24;100180.25;;;8.26;87.29
21781;BME280;52576;53.614;9.894;2024-03-02T01:25:27;100175.97;;;8.25;87.40
21781;BME280;52576;53.614;9.894;2024-03-02T01:27:29;100173.47;;;8.24;87.59
21781;BME280;52576;53.614;9.894;2024-03-02T01:29:32;100176.16;;;8.22;87.92
21781;BME280;52576;53.614;9.894;2024-03-02T01:31:35;100172.81;;;8.20;88.21
21781;BME280;52576;53.614;9.894;2024-03-02T01:33:39;100179.72;;;8.21;88.24
21781;BME280;52576;53.614;9.894;2024-03-02T01:35:42;100172.81;;;8.20;88.47
21781;BME280;52576;53.614;9.894;2024-03-02T01:37:45;100171.16;;;8.19;88.68
21781;BME280;52576;53.614;9.894;2024-03-02T01:39:48;100172.91;;;8.18;88.89
21781;BME280;52576;53.614;9.894;2024-03-02T01:41:51;100173.84;;;8.17;88.97
21781;BME280;52576;53.614;9.894;2024-03-02T01:43:54;100167.06;;;8.15;89.18
21781;BME280;52576;53.614;9.894;2024-03-02T01:45:57;100168.19;;;8.11;89.47
21781;BME280;52576;53.614;9.894;2024-03-02T01:48:01;100167.56;;;8.07;89.80
21781;BME280;52576;53.614;9.894;2024-03-02T01:50:07;100157.44;;;8.03;90.16
21781;BME280;52576;53.614;9.894;2024-03-02T01:52:09;100167.97;;;8.01;90.71
21781;BME280;52576;53.614;9.894;2024-03-02T01:54:12;100169.03;;;7.99;90.81
21781;BME280;52576;53.614;9.894;2024-03-02T01:56:15;100161.38;;;7.96;91.14
21781;BME280;52576;53.614;9.894;2024-03-02T01:58:18;100161.50;;;7.94;91.24
21781;BME280;52576;53.614;9.894;2024-03-02T02:00:22;100162.53;;;7.92;91.47
21781;BME280;52576;53.614;9.894;2024-03-02T02:02:26;100167.94;;;7.89;91.82
21781;BME280;52576;53.614;9.894;2024-03-02T02:04:30;100157.69;;;7.86;91.98
21781;BME280;52576;53.614;9.894;2024-03-02T02:06:34;100156.03;;;7.84;92.41
21781;BME280;52576;53.614;9.894;2024-03-02T02:08:37;100151.00;;;7.81;92.33
21781;BME280;52576;53.614;9.894;2024-03-02T02:10:40;100147.69;;;7.79;92.56
21781;BME280;52576;53.614;9.894;2024-03-02T02:12:43;100152.16;;;7.77;92.88
21781;BME280;52576;53.614;9.894;2024-03-02T02:14:47;100152.25;;;7.76;93.12
21781;BME280;52576;53.614;9.894;2024-03-02T02:16:50;100149.75;;;7.74;93.19
21781;BME280;52576;53.614;9.894;2024-03-02T02:18:54;100145.47;;;7.73;93.39
21781;BME280;52576;53.614;9.894;2024-03-02T02:20:57;100144.63;;;7.73;93.68
21781;BME280;52576;53.614;9.894;2024-03-02T02:23:02;100146.41;;;7.72;93.64
21781;BME280;52576;53.614;9.894;2024-03-02T02:25:06;100133.34;;;7.72;93.65
21781;BME280;52576;53.614;9.894;2024-03-02T02:27:09;100134.28;;;7.71;93.76
21781;BME280;52576;53.614;9.894;2024-03-02T02:29:12;100137.84;;;7.70;93.72
21781;BME280;52576;53.614;9.894;2024-03-02T02:31:16;100130.94;;;7.69;93.79
21781;BME280;52576;53.614;9.894;2024-03-02T02:33:19;100129.28;;;7.68;93.74
21781;BME280;52576;53.614;9.894;2024-03-02T02:35:22;100124.16;;;7.67;93.80
21781;BME280;52576;53.614;9.894;2024-03-02T02:37:26;100128.63;;;7.65;93.99
21781;BME280;52576;53.614;9.894;2024-03-02T02:39:29;100129.47;;;7.65;94.13
21781;BME280;52576;53.614;9.894;2024-03-02T02:41:33;100128.72;;;7.63;94.24
21781;BME280;52576;53.614;9.894;2024-03-02T02:43:36;100123.50;;;7.63;94.22
21781;BME280;52576;53.614;9.894;2024-03-02T02:45:39;100129.66;;;7.62;94.27
21781;BME280;52576;53.614;9.894;2024-03-02T02:47:42;100123.59;;;7.62;94.33
21781;BME280;52576;53.614;9.894;2024-03-02T02:49:44;100129.84;;;7.59;94.39
21781;BME280;52576;53.614;9.894;2024-03-02T02:51:47;100122.03;;;7.59;94.58
21781;BME280;52576;53.614;9.894;2024-03-02T02:53:50;100119.63;;;7.56;94.72
21781;BME280;52576;53.614;9.894;2024-03-02T02:55:54;100125.78;;;7.55;94.77
21781;BME280;52576;53.614;9.894;2024-03-02T02:57:57;100121.50;;;7.54;94.83
21781;BME280;52576;53.614;9.894;2024-03-02T03:00:00;100125.06;;;7.53;95.01
21781;BME280;52576;53.614;9.894;2024-03-02T03:02:03;100126.94;;;7.51;95.08
21781;BME280;52576;53.614;9.894;2024-03-02T03:04:06;100120.97;;;7.49;95.20
21781;BME280;52576;53.614;9.894;2024-03-02T03:06:09;100127.13;;;7.48;95.45
21781;BME280;52576;53.614;9.894;2024-03-02T03:08:12;100121.06;;;7.47;95.60
21781;BME280;52576;53.614;9.894;2024-03-02T03:10:14;100121.06;;;7.47;95.60
21781;BME280;52576;53.614;9.894;2024-03-02T03:12:18;100115.84;;;7.47;95.87
21781;BME280;52576;53.614;9.894;2024-03-02T03:14:21;100113.34;;;7.46;95.83
21781;BME280;52576;53.614;9.894;2024-03-02T03:16:24;100113.34;;;7.46;95.99
21781;BME280;52576;53.614;9.894;2024-03-02T03:18:27;100110.84;;;7.44;95.96
21781;BME280;52576;53.614;9.894;2024-03-02T03:20:30;100117.81;;;7.44;96.15
21781;BME280;52576;53.614;9.894;2024-03-02T03:22:33;100122.09;;;7.45;96.31
21781;BME280;52576;53.614;9.894;2024-03-02T03:24:37;100120.44;;;7.44;96.37
21781;BME280;52576;53.614;9.894;2024-03-02T03:26:40;100116.88;;;7.45;96.32
21781;BME280;52576;53.614;9.894;2024-03-02T03:28:45;100122.09;;;7.45;96.53
21781;BME280;52576;53.614;9.894;2024-03-02T03:30:47;100120.44;;;7.44;96.52
21781;BME280;52576;53.614;9.894;2024-03-02T03:32:50;100121.25;;;7.44;96.34
21781;BME280;52576;53.614;9.894;2024-03-02T03:34:52;100116.16;;;7.43;96.48
21781;BME280;52576;53.614;9.894;2024-03-02T03:36:56;100113.53;;;7.43;96.54
21781;BME280;52576;53.614;9.894;2024-03-02T03:38:58;100111.03;;;7.41;96.71
21781;BME280;52576;53.614;9.894;2024-03-02T03:41:01;100115.41;;;7.41;96.54
21781;BME280;52576;53.614;9.894;2024-03-02T03:43:04;100116.25;;;7.41;96.64
21781;BME280;52576;53.614;9.894;2024-03-02T03:45:09;100116.25;;;7.41;96.61
21781;BME280;52576;53.614;9.894;2024-03-02T03:47:12;100112.78;;;7.41;96.68
21781;BME280;52576;53.614;9.894;2024-03-02T03:49:14;100112.91;;;7.39;96.52
21781;BME280;52576;53.614;9.894;2024-03-02T03:51:17;100112.06;;;7.39;96.63
21781;BME280;52576;53.614;9.894;2024-03-02T03:53:20;100110.38;;;7.38;96.60
21781;BME280;52576;53.614;9.894;2024-03-02T03:55:24;100110.38;;;7.38;96.72
21781;BME280;52576;53.614;9.894;2024-03-02T03:57:27;100106.94;;;7.37;96.50
21781;BME280;52576;53.614;9.894;2024-03-02T03:59:29;100106.19;;;7.35;96.54
21781;BME280;52576;53.614;9.894;2024-03-02T04:01:33;100110.56;;;7.35;96.57
21781;BME280;52576;53.614;9.894;2024-03-02T04:03:35;100102.00;;;7.33;96.50
21781;BME280;52576;53.614;9.894;2024-03-02T04:05:39;100100.34;;;7.32;96.55
21781;BME280;52576;53.614;9.894;2024-03-02T04:07:42;100103.03;;;7.30;96.49
21781;BME280;52576;53.614;9.894;2024-03-02T04:09:45;100096.16;;;7.29;96.45
21781;BME280;52576;53.614;9.894;2024-03-02T04:11:48;100093.66;;;7.28;96.59
21781;BME280;52576;53.614;9.894;2024-03-02T04:13:51;100099.69;;;7.28;96.50
21781;BME280;52576;53.614;9.894;2024-03-02T04:15:58;100098.84;;;7.28;96.59
21781;BME280;52576;53.614;9.894;2024-03-02T04:18:03;100102.31;;;7.28;96.63
21781;BME280;52576;53.614;9.894;2024-03-02T04:20:07;100094.47;;;7.28;96.51
21781;BME280;52576;53.614;9.894;2024-03-02T04:22:10;100092.72;;;7.29;96.42
21781;BME280;52576;53.614;9.894;2024-03-02T04:24:25;100104.06;;;7.28;96.47
21781;BME280;52576;53.614;9.894;2024-03-02T04:26:28;100101.38;;;7.29;96.50
21781;BME280;52576;53.614;9.894;2024-03-02T04:28:31;100097.84;;;7.30;96.47
21781;BME280;52576;53.614;9.894;2024-03-02T04:30:34;100103.88;;;7.31;96.34
21781;BME280;52576;53.614;9.894;2024-03-02T04:32:37;100102.94;;;7.32;96.42
21781;BME280;52576;53.614;9.894;2024-03-02T04:34:42;100113.28;;;7.33;96.29
21781;BME280;52576;53.614;9.894;2024-03-02T04:36:44;100119.31;;;7.34;96.12
21781;BME280;52576;53.614;9.894;2024-03-02T04:38:47;100121.84;;;7.35;96.01
21781;BME280;52576;53.614;9.894;2024-03-02T04:40:50;100124.34;;;7.37;95.94
21781;BME280;52576;53.614;9.894;2024-03-02T04:42:53;100127.69;;;7.39;95.79
21781;BME280;52576;53.614;9.894;2024-03-02T04:44:57;100124.06;;;7.41;95.60
21781;BME280;52576;53.614;9.894;2024-03-02T04:47:00;100123.97;;;7.43;95.41
21781;BME280;52576;53.614;9.894;2024-03-02T04:49:03;100127.41;;;7.43;95.19
21781;BME280;52576;53.614;9.894;2024-03-02T04:51:07;100120.44;;;7.44;95.02
21781;BME280;52576;53.614;9.894;2024-03-02T04:53:11;100116.88;;;7.45;94.88
21781;BME280;52576;53.614;9.894;2024-03-02T04:55:14;100113.34;;;7.46;94.69
21781;BME280;52576;53.614;9.894;2024-03-02T04:57:31;100115.13;;;7.45;94.52
21781;BME280;52576;53.614;9.894;2024-03-02T04:59:34;100115.22;;;7.44;94.50
21781;BME280;52576;53.614;9.894;2024-03-02T05:01:37;100111.78;;;7.43;94.36
21781;BME280;52576;53.614;9.894;2024-03-02T05:03:41;100115.22;;;7.44;94.13
21781;BME280;52576;53.614;9.894;2024-03-02T05:05:44;100110.94;;;7.43;94.06
21781;BME280;52576;53.614;9.894;2024-03-02T05:07:48;100108.31;;;7.43;94.08
21781;BME280;52576;53.614;9.894;2024-03-02T05:09:51;100106.66;;;7.42;94.05
21781;BME280;52576;53.614;9.894;2024-03-02T05:11:54;100106.66;;;7.42;93.98
21781;BME280;52576;53.614;9.894;2024-03-02T05:14:31;100110.19;;;7.41;93.90
21781;BME280;52576;53.614;9.894;2024-03-02T05:16:33;100107.69;;;7.39;93.73
21781;BME280;52576;53.614;9.894;2024-03-02T05:18:37;100114.66;;;7.39;93.73
21781;BME280;52576;53.614;9.894;2024-03-02T05:20:40;100106.94;;;7.37;93.68
21781;BME280;52576;53.614;9.894;2024-03-02T05:22:43;100110.38;;;7.38;93.71
21781;BME280;52576;53.614;9.894;2024-03-02T05:24:47;100110.38;;;7.38;93.59
21781;BME280;52576;53.614;9.894;2024-03-02T05:26:51;100116.63;;;7.35;93.67
21781;BME280;52576;53.614;9.894;2024-03-02T05:28:53;100119.25;;;7.35;93.65
21781;BME280;52576;53.614;9.894;2024-03-02T05:30:56;100115.78;;;7.35;93.67
21781;BME280;52576;53.614;9.894;2024-03-02T05:32:59;100119.31;;;7.34;93.64
21781;BME280;52576;53.614;9.894;2024-03-02T05:35:02;100114.13;;;7.34;93.69
21781;BME280;52576;53.614;9.894;2024-03-02T05:37:07;100117.47;;;7.36;93.58
21781;BME280;52576;53.614;9.894;2024-03-02T05:39:11;100119.25;;;7.35;93.37
21781;BME280;52576;53.614;9.894;2024-03-02T05:41:14;100115.78;;;7.35;93.40
21781;BME280;52576;53.614;9.894;2024-03-02T05:43:17;100115.97;;;7.32;93.30
21781;BME280;52576;53.614;9.894;2024-03-02T05:45:22;100110.97;;;7.29;93.31
21781;BME280;52576;53.614;9.894;2024-03-02T05:47:25;100112.72;;;7.28;93.36
21781;BME280;52576;53.614;9.894;2024-03-02T05:49:27;100105.03;;;7.27;93.46
21781;BME280;52576;53.614;9.894;2024-03-02T05:51:31;100110.34;;;7.25;93.22
21781;BME280;52576;53.614;9.894;2024-03-02T05:53:34;100107.84;;;7.24;93.37
21781;BME280;52576;53.614;9.894;2024-03-02T05:55:39;100107.09;;;7.22;93.33
21781;BME280;52576;53.614;9.894;2024-03-02T05:57:44;100120.13;;;7.22;93.44
21781;BME280;52576;53.614;9.894;2024-03-02T06:00:05;100108.97;;;7.20;93.38
21781;BME280;52576;53.614;9.894;2024-03-02T06:02:13;100115.94;;;7.19;93.27
21781;BME280;52576;53.614;9.894;2024-03-02T06:04:16;100118.66;;;7.18;93.27
21781;BME280;52576;53.614;9.894;2024-03-02T06:06:19;100118.66;;;7.18;93.26
21781;BME280;52576;53.614;9.894;2024-03-02T06:08:22;100116.97;;;7.17;93.07
21781;BME280;52576;53.614;9.894;2024-03-02T06:10:25;100123.09;;;7.15;93.14
21781;BME280;52576;53.614;9.894;2024-03-02T06:12:30;100119.75;;;7.13;92.96
21781;BME280;52576;53.614;9.894;2024-03-02T06:14:35;100125.91;;;7.12;93.08
21781;BME280;52576;53.614;9.894;2024-03-02T06:16:38;100125.16;;;7.10;93.09
21781;BME280;52576;53.614;9.894;2024-03-02T06:18:41;100125.34;;;7.07;92.88
21781;BME280;52576;53.614;9.894;2024-03-02T06:20:45;100118.56;;;7.05;93.06
21781;BME280;52576;53.614;9.894;2024-03-02T06:22:48;100126.47;;;7.03;92.92
21781;BME280;52576;53.614;9.894;2024-03-02T06:24:51;100121.47;;;7.00;93.12
21781;BME280;52576;53.614;9.894;2024-03-02T06:26:53;100130.22;;;6.99;92.86
21781;BME280;52576;53.614;9.894;2024-03-02T06:28:56;100122.59;;;6.96;93.08
21781;BME280;52576;53.614;9.894;2024-03-02T06:31:01;100120.19;;;6.93;93.11
21781;BME280;52576;53.614;9.894;2024-03-02T06:33:04;100122.03;;;6.91;93.33
21781;BME280;52576;53.614;9.894;2024-03-02T06:35:08;100113.47;;;6.89;93.17
21781;BME280;52576;53.614;9.894;2024-03-02T06:37:12;100107.44;;;6.89;93.22
21781;BME280;52576;53.614;9.894;2024-03-02T06:39:17;100117.00;;;6.88;93.30
21781;BME280;52576;53.614;9.894;2024-03-02T06:41:20;100115.34;;;6.87;93.37
21781;BME280;52576;53.614;9.894;2024-03-02T06:43:23;100109.28;;;6.87;93.58
21781;BME280;52576;53.614;9.894;2024-03-02T06:45:26;100111.81;;;6.88;93.59
21781;BME280;52576;53.614;9.894;2024-03-02T06:47:30;100113.56;;;6.88;93.61
21781;BME280;52576;53.614;9.894;2024-03-02T06:49:33;100111.81;;;6.88;93.58
21781;BME280;52576;53.614;9.894;2024-03-02T06:51:37;100113.47;;;6.89;93.69
21781;BME280;52576;53.614;9.894;2024-03-02T06:53:40;100122.03;;;6.91;93.80
21781;BME280;52576;53.614;9.894;2024-03-02T06:55:43;100119.34;;;6.93;93.84
21781;BME280;52576;53.614;9.894;2024-03-02T06:57:47;100113.94;;;6.96;93.80
21781;BME280;52576;53.614;9.894;2024-03-02T06:59:49;100115.63;;;6.97;93.75
21781;BME280;52576;53.614;9.894;2024-03-02T07:01:55;100112.00;;;6.99;93.91
21781;BME280;52576;53.614;9.894;2024-03-02T07:04:00;100123.97;;;7.02;93.89
21781;BME280;52576;53.614;9.894;2024-03-02T07:06:03;100131.59;;;7.05;93.79
21781;BME280;52576;53.614;9.894;2024-03-02T07:08:06;100143.59;;;7.07;93.82
21781;BME280;52576;53.614;9.894;2024-03-02T07:10:09;100151.97;;;7.12;93.84
21781;BME280;52576;53.614;9.894;2024-03-02T07:12:13;100160.34;;;7.18;93.81
21781;BME280;52576;53.614;9.894;2024-03-02T07:14:16;100162.66;;;7.22;93.59
21781;BME280;52576;53.614;9.894;2024-03-02T07:16:20;100160.63;;;7.27;93.43
21781;BME280;52576;53.614;9.894;2024-03-02T07:18:30;100160.28;;;7.32;93.27
21781;BME280;52576;53.614;9.894;2024-03-02T07:20:35;100159.19;;;7.36;93.01
21781;BME280;52576;53.614;9.894;2024-03-02T07:22:38;100162.53;;;7.38;92.81
21781;BME280;52576;53.614;9.894;2024-03-02T07:24:44;100158.78;;;7.42;92.86
21781;BME280;52576;53.614;9.894;2024-03-02T07:26:48;100164.66;;;7.45;92.85
21781;BME280;52576;53.614;9.894;2024-03-02T07:28:53;100165.22;;;7.51;92.71
21781;BME280;52576;53.614;9.894;2024-03-02T07:31:00;100163.22;;;7.54;92.45
21781;BME280;52576;53.614;9.894;2024-03-02T07:33:04;100164.69;;;7.58;92.09
21781;BME280;52576;53.614;9.894;2024-03-02T07:35:08;100162.00;;;7.60;91.82
21781;BME280;52576;53.614;9.894;2024-03-02T07:37:12;100167.00;;;7.63;91.77
21781;BME280;52576;53.614;9.894;2024-03-02T07:39:16;100164.31;;;7.64;91.55
21781;BME280;52576;53.614;9.894;2024-03-02T07:41:19;100170.16;;;7.68;91.32
21781;BME280;52576;53.614;9.894;2024-03-02T07:43:22;100167.47;;;7.69;91.02
21781;BME280;52576;53.614;9.894;2024-03-02T07:45:25;100180.41;;;7.71;90.97
21781;BME280;52576;53.614;9.894;2024-03-02T07:47:27;100181.25;;;7.71;90.72
21781;BME280;52576;53.614;9.894;2024-03-02T07:49:30;100181.06;;;7.74;90.71
21781;BME280;52576;53.614;9.894;2024-03-02T07:51:33;100187.94;;;7.75;90.64
21781;BME280;52576;53.614;9.894;2024-03-02T07:53:38;100185.25;;;7.77;90.41
21781;BME280;52576;53.614;9.894;2024-03-02T07:55:41;100190.47;;;7.77;90.18
21781;BME280;52576;53.614;9.894;2024-03-02T07:57:44;100192.22;;;7.76;89.82
21781;BME280;52576;53.614;9.894;2024-03-02T07:59:48;100195.56;;;7.78;89.83
21781;BME280;52576;53.614;9.894;2024-03-02T08:01:51;100196.50;;;7.77;89.68
21781;BME280;52576;53.614;9.894;2024-03-02T08:03:54;100200.88;;;7.77;89.62
21781;BME280;52576;53.614;9.894;2024-03-02T08:06:00;100198.38;;;7.75;89.65
21781;BME280;52576;53.614;9.894;2024-03-02T08:08:04;100198.38;;;7.75;89.54
21781;BME280;52576;53.614;9.894;2024-03-02T08:10:09;100206.09;;;7.77;89.59
21781;BME280;52576;53.614;9.894;2024-03-02T08:12:12;100201.72;;;7.77;89.47
21781;BME280;52576;53.614;9.894;2024-03-02T08:14:15;100203.41;;;7.78;89.38
21781;BME280;52576;53.614;9.894;2024-03-02T08:16:18;100203.19;;;7.81;89.25
21781;BME280;52576;53.614;9.894;2024-03-02T08:18:22;100202.34;;;7.81;89.21
21781;BME280;52576;53.614;9.894;2024-03-02T08:20:25;100209.34;;;7.80;89.17
21781;BME280;52576;53.614;9.894;2024-03-02T08:22:28;100208.41;;;7.81;88.91
21781;BME280;52576;53.614;9.894;2024-03-02T08:24:32;100201.31;;;7.83;89.10
21781;BME280;52576;53.614;9.894;2024-03-02T08:26:37;100211.75;;;7.83;88.86
21781;BME280;52576;53.614;9.894;2024-03-02T08:28:40;100213.41;;;7.84;88.90
21781;BME280;52576;53.614;9.894;2024-03-02T08:30:43;100217.72;;;7.86;88.85
21781;BME280;52576;53.614;9.894;2024-03-02T08:32:46;100210.72;;;7.86;88.79
21781;BME280;52576;53.614;9.894;2024-03-02T08:34:49;100216.78;;;7.87;88.78
21781;BME280;52576;53.614;9.894;2024-03-02T08:36:52;100209.69;;;7.89;88.73
21781;BME280;52576;53.614;9.894;2024-03-02T08:38:55;100216.56;;;7.90;88.68
21781;BME280;52576;53.614;9.894;2024-03-02T08:40:58;100229.53;;;7.91;88.65
21781;BME280;52576;53.614;9.894;2024-03-02T08:43:03;100228.50;;;7.94;88.81
21781;BME280;52576;53.614;9.894;2024-03-02T08:45:07;100228.22;;;7.98;88.70
21781;BME280;52576;53.614;9.894;2024-03-02T08:47:11;100221.03;;;8.02;88.57
21781;BME280;52576;53.614;9.894;2024-03-02T08:49:14;100223.31;;;8.06;88.52
21781;BME280;52576;53.614;9.894;2024-03-02T08:51:17;100224.69;;;8.12;88.32
21781;BME280;52576;53.614;9.894;2024-03-02T08:53:20;100221.69;;;8.18;88.18
21781;BME280;52576;53.614;9.894;2024-03-02T08:55:23;100215.13;;;8.25;88.02
21781;BME280;52576;53.614;9.894;2024-03-02T08:57:26;100225.91;;;8.33;87.88
21781;BME280;52576;53.614;9.894;2024-03-02T08:59:31;100216.53;;;8.43;87.70
21781;BME280;52576;53.614;9.894;2024-03-02T09:01:34;100220.31;;;8.52;87.40
21781;BME280;52576;53.614;9.894;2024-03-02T09:03:37;100223.03;;;8.63;87.21
21781;BME280;52576;53.614;9.894;2024-03-02T09:05:40;100223.06;;;8.76;86.94
21781;BME280;52576;53.614;9.894;2024-03-02T09:07:44;100224.81;;;8.88;86.59
21781;BME280;52576;53.614;9.894;2024-03-02T09:09:47;100229.22;;;9.00;86.17
21781;BME280;52576;53.614;9.894;2024-03-02T09:11:51;100230.97;;;9.12;85.83
21781;BME280;52576;53.614;9.894;2024-03-02T09:13:56;100225.94;;;9.22;85.29
21781;BME280;52576;53.614;9.894;2024-03-02T09:16:01;100229.72;;;9.31;84.77
21781;BME280;52576;53.614;9.894;2024-03-02T09:18:04;100230.72;;;9.41;84.42
21781;BME280;52576;53.614;9.894;2024-03-02T09:20:09;100237.09;;;9.49;83.90
21781;BME280;52576;53.614;9.894;2024-03-02T09:22:12;100230.38;;;9.58;83.52
21781;BME280;52576;53.614;9.894;2024-03-02T09:24:16;100229.69;;;9.67;83.20
21781;BME280;52576;53.614;9.894;2024-03-02T09:26:19;100231.88;;;9.73;82.55
21781;BME280;52576;53.614;9.894;2024-03-02T09:28:22;100242.75;;;9.80;82.26
21781;BME280;52576;53.614;9.894;2024-03-02T09:30:25;100236.25;;;9.85;81.82
21781;BME280;52576;53.614;9.894;2024-03-02T09:32:30;100230.75;;;9.88;81.61
21781;BME280;52576;53.614;9.894;2024-03-02T09:34:33;100237.44;;;9.93;80.81
21781;BME280;52576;53.614;9.894;2024-03-02T09:36:36;100234.72;;;9.94;80.75
21781;BME280;52576;53.614;9.894;2024-03-02T09:38:38;100226.75;;;9.96;80.65
21781;BME280;52576;53.614;9.894;2024-03-02T09:40:41;100231.78;;;9.99;80.45
21781;BME280;52576;53.614;9.894;2024-03-02T09:42:45;100230.81;;;10.00;80.29
21781;BME280;52576;53.614;9.894;2024-03-02T09:44:53;100236.56;;;10.05;79.78
21781;BME280;52576;53.614;9.894;2024-03-02T09:46:57;100240.66;;;10.09;79.54
21781;BME280;52576;53.614;9.894;2024-03-02T09:49:00;100245.50;;;10.13;79.27
21781;BME280;52576;53.614;9.894;2024-03-02T09:51:04;100239.03;;;10.19;79.10
21781;BME280;52576;53.614;9.894;2024-03-02T09:53:08;100238.59;;;10.25;79.22
21781;BME280;52576;53.614;9.894;2024-03-02T09:55:11;100241.47;;;10.33;79.06
21781;BME280;52576;53.614;9.894;2024-03-02T09:57:14;100234.13;;;10.38;78.43
21781;BME280;52576;53.614;9.894;2024-03-02T09:59:18;100231.03;;;10.44;78.26
21781;BME280;52576;53.614;9.894;2024-03-02T10:01:22;100233.19;;;10.50;77.66
21781;BME280;52576;53.614;9.894;2024-03-02T10:03:26;100228.44;;;10.56;77.39
21781;BME280;52576;53.614;9.894;2024-03-02T10:05:33;100228.09;;;10.60;77.52
21781;BME280;52576;53.614;9.894;2024-03-02T10:07:36;100237.28;;;10.66;77.21
21781;BME280;52576;53.614;9.894;2024-03-02T10:09:39;100234.91;;;10.74;77.00
21781;BME280;52576;53.614;9.894;2024-03-02T10:11:42;100240.53;;;10.80;76.20
21781;BME280;52576;53.614;9.894;2024-03-02T10:13:45;100235.66;;;10.87;76.22
21781;BME280;52576;53.614;9.894;2024-03-02T10:15:48;100236.84;;;10.94;75.93
21781;BME280;52576;53.614;9.894;2024-03-02T10:17:54;100231.13;;;11.00;75.47
21781;BME280;52576;53.614;9.894;2024-03-02T10:19:57;100225.66;;;11.03;74.43
21781;BME280;52576;53.614;9.894;2024-03-02T10:22:02;100229.00;;;11.05;74.30
21781;BME280;52576;53.614;9.894;2024-03-02T10:24:15;100227.22;;;11.06;73.98
21781;BME280;52576;53.614;9.894;2024-03-02T10:26:21;100224.47;;;11.07;73.90
21781;BME280;52576;53.614;9.894;2024-03-02T10:28:24;100229.59;;;11.09;74.04
21781;BME280;52576;53.614;9.894;2024-03-02T10:30:30;100236.50;;;11.10;74.22
21781;BME280;52576;53.614;9.894;2024-03-02T10:32:33;100230.19;;;11.12;73.97
21781;BME280;52576;53.614;9.894;2024-03-02T10:34:37;100235.31;;;11.14;73.62
21781;BME280;52576;53.614;9.894;2024-03-02T10:36:42;100235.09;;;11.17;73.70
21781;BME280;52576;53.614;9.894;2024-03-02T10:38:45;100239.94;;;11.21;73.23
21781;BME280;52576;53.614;9.894;2024-03-02T10:40:50;100235.06;;;11.28;73.28
21781;BME280;52576;53.614;9.894;2024-03-02T10:42:53;100236.97;;;11.37;73.38
21781;BME280;52576;53.614;9.894;2024-03-02T10:44:57;100248.28;;;11.49;73.08
21781;BME280;52576;53.614;9.894;2024-03-02T10:47:01;100241.38;;;11.59;72.71
21781;BME280;52576;53.614;9.894;2024-03-02T10:49:05;100239.53;;;11.71;72.41
21781;BME280;52576;53.614;9.894;2024-03-02T10:51:10;100241.47;;;11.80;71.92
21781;BME280;52576;53.614;9.894;2024-03-02T10:53:13;100244.31;;;11.88;71.56
21781;BME280;52576;53.614;9.894;2024-03-02T10:55:18;100246.59;;;11.93;71.41
21781;BME280;52576;53.614;9.894;2024-03-02T10:57:21;100242.47;;;12.00;70.74